createdAt,value
2022-11-27T00:01:58.813Z,5.60
2022-11-27T00:07:00.254Z,5.53
2022-11-27T00:12:01.637Z,5.50
2022-11-27T00:17:03.003Z,5.46
2022-11-27T00:22:04.475Z,5.41
2022-11-27T00:27:05.920Z,5.45
2022-11-27T00:32:08.103Z,5.53
2022-11-27T00:37:09.511Z,5.59
2022-11-27T00:42:11.003Z,5.60
2022-11-27T00:47:12.387Z,5.58
2022-11-27T00:52:13.864Z,5.52
2022-11-27T00:57:15.250Z,5.50
2022-11-27T01:02:16.684Z,5.52
2022-11-27T01:07:18.109Z,5.48
2022-11-27T01:12:19.544Z,5.33
2022-11-27T01:17:20.939Z,5.30
2022-11-27T01:22:22.640Z,5.39
2022-11-27T01:27:24.066Z,5.44
2022-11-27T01:32:26.119Z,5.44
2022-11-27T01:37:27.622Z,5.38
2022-11-27T01:42:28.981Z,5.33
2022-11-27T01:47:43.633Z,5.23
2022-11-27T01:52:50.126Z,5.12
2022-11-27T01:58:02.142Z,5.04
2022-11-27T02:03:04.324Z,4.95
2022-11-27T02:08:12.094Z,4.91
2022-11-27T02:13:23.351Z,4.67
2022-11-27T02:18:55.792Z,4.55
2022-11-27T02:24:46.795Z,4.56
2022-11-27T02:29:54.193Z,4.36
2022-11-27T02:35:06.371Z,4.12
2022-11-27T02:40:13.842Z,3.96
2022-11-27T02:45:21.450Z,3.85
2022-11-27T02:50:26.028Z,3.87
2022-11-27T02:55:32.263Z,3.89
2022-11-27T03:00:35.371Z,3.81
2022-11-27T03:05:39.582Z,3.76
2022-11-27T03:10:51.959Z,3.80
2022-11-27T03:16:02.507Z,3.85
2022-11-27T03:21:28.452Z,3.84
2022-11-27T03:26:30.808Z,3.86
2022-11-27T03:31:32.807Z,3.97
2022-11-27T03:36:34.268Z,3.93
2022-11-27T03:42:02.494Z,3.96
2022-11-27T03:47:41.875Z,4.02
2022-11-27T03:52:57.319Z,4.06
2022-11-27T03:58:08.545Z,4.07
2022-11-27T04:03:11.587Z,4.08
2022-11-27T04:08:12.971Z,4.05
2022-11-27T04:13:14.741Z,4.07
2022-11-27T04:18:16.114Z,4.14
2022-11-27T04:23:17.575Z,4.18
2022-11-27T04:28:19.083Z,4.13
2022-11-27T04:33:20.940Z,4.11
2022-11-27T04:38:23.586Z,4.08
2022-11-27T04:43:25.023Z,4.08
2022-11-27T04:48:26.391Z,4.03
2022-11-27T04:53:27.854Z,4.02
2022-11-27T04:58:29.247Z,4.01
2022-11-27T05:03:30.691Z,4.00
2022-11-27T05:08:33.290Z,3.98
2022-11-27T05:13:35.127Z,3.97
2022-11-27T05:18:36.595Z,4.00
2022-11-27T05:23:37.958Z,4.02
2022-11-27T05:28:39.320Z,4.04
2022-11-27T05:33:40.694Z,4.01
2022-11-27T05:38:42.118Z,4.00
2022-11-27T05:43:43.558Z,3.93
2022-11-27T05:48:44.922Z,3.88
2022-11-27T05:53:46.366Z,3.86
2022-11-27T05:58:48.545Z,3.89
2022-11-27T06:03:50.026Z,3.81
2022-11-27T06:08:51.518Z,3.70
2022-11-27T06:13:52.922Z,3.62
2022-11-27T06:18:55.961Z,3.56
2022-11-27T06:23:57.396Z,3.49
2022-11-27T06:29:00.975Z,3.46
2022-11-27T06:34:03.714Z,3.39
2022-11-27T06:39:06.582Z,3.39
2022-11-27T06:44:09.367Z,3.44
2022-11-27T06:49:12.746Z,3.49
2022-11-27T06:54:14.151Z,3.52
2022-11-27T06:59:16.265Z,3.57
2022-11-27T07:04:17.708Z,3.62
2022-11-27T07:09:19.086Z,3.63
2022-11-27T07:14:20.462Z,3.63
2022-11-27T07:19:21.825Z,3.66
2022-11-27T07:24:23.282Z,3.70
2022-11-27T07:29:24.707Z,3.75
2022-11-27T07:34:26.059Z,3.77
2022-11-27T07:39:54.116Z,3.83
2022-11-27T07:44:49.106Z,3.91
2022-11-27T07:49:50.499Z,3.97
2022-11-27T07:54:51.904Z,4.06
2022-11-27T07:59:53.963Z,4.25
2022-11-27T08:04:55.417Z,4.32
2022-11-27T08:10:00.295Z,4.44
2022-11-27T08:15:04.471Z,4.54
2022-11-27T08:20:07.171Z,4.63
2022-11-27T08:25:09.092Z,4.71
2022-11-27T08:30:10.680Z,4.77
2022-11-27T08:35:12.214Z,4.83
2022-11-27T08:40:14.021Z,4.92
2022-11-27T08:45:15.536Z,5.01
2022-11-27T08:50:17.064Z,5.08
2022-11-27T08:55:18.438Z,5.16
2022-11-27T09:00:24.929Z,5.30
2022-11-27T09:05:29.934Z,5.44
2022-11-27T09:10:31.336Z,5.57
2022-11-27T09:15:32.742Z,5.71
2022-11-27T09:20:34.190Z,5.83
2022-11-27T09:25:39.041Z,5.97
2022-11-27T09:30:40.442Z,6.04
2022-11-27T09:35:41.910Z,6.11
2022-11-27T09:40:52.106Z,6.20
2022-11-27T09:45:58.501Z,6.25
2022-11-27T09:51:02.361Z,6.32
2022-11-27T09:56:06.792Z,6.40
2022-11-27T10:01:16.174Z,6.51
2022-11-27T10:06:23.113Z,6.65
2022-11-27T10:11:33.947Z,6.78
2022-11-27T10:16:45.648Z,6.90
2022-11-27T10:21:55.455Z,7.01
2022-11-27T10:26:59.179Z,7.06
2022-11-27T10:32:52.971Z,7.13
2022-11-27T10:38:06.430Z,7.20
2022-11-27T10:43:18.919Z,7.24
2022-11-27T10:48:21.028Z,7.25
2022-11-27T10:53:37.190Z,7.29
2022-11-27T10:58:46.996Z,7.40
2022-11-27T11:03:48.747Z,7.53
2022-11-27T11:09:24.224Z,7.65
2022-11-27T11:14:26.954Z,7.75
2022-11-27T11:19:38.934Z,7.83
2022-11-27T11:24:46.243Z,7.91
2022-11-27T11:29:55.206Z,7.97
2022-11-27T11:35:01.493Z,8.04
2022-11-27T11:40:09.777Z,8.17
2022-11-27T11:45:13.354Z,8.32
2022-11-27T11:50:25.336Z,8.54
2022-11-27T11:55:35.483Z,8.61
2022-11-27T12:01:26.136Z,8.63
2022-11-27T12:06:24.427Z,8.72
2022-11-27T12:11:42.333Z,8.79
2022-11-27T12:17:01.478Z,8.84
2022-11-27T12:22:15.018Z,8.85
2022-11-27T12:27:16.331Z,8.82
2022-11-27T12:32:52.042Z,8.84
2022-11-27T12:38:22.296Z,8.83
2022-11-27T12:43:24.992Z,8.79
2022-11-27T12:48:42.351Z,8.73
2022-11-27T12:53:49.227Z,8.69
2022-11-27T12:58:59.047Z,8.67
2022-11-27T13:04:29.120Z,8.67
2022-11-27T13:09:45.585Z,8.67
2022-11-27T13:14:55.044Z,8.73
2022-11-27T13:19:56.791Z,9.28
2022-11-27T13:25:01.644Z,10.19
2022-11-27T13:30:06.802Z,10.42
2022-11-27T13:35:21.802Z,9.97
2022-11-27T13:40:31.559Z,9.41
2022-11-27T13:45:36.905Z,9.01
2022-11-27T13:50:45.835Z,8.75
2022-11-27T13:55:56.646Z,8.56
2022-11-27T14:00:58.765Z,8.42
2022-11-27T14:06:00.216Z,8.29
2022-11-27T14:11:06.434Z,8.17
2022-11-27T14:16:30.248Z,8.08
2022-11-27T14:21:42.697Z,7.99
2022-11-27T14:26:44.234Z,7.87
2022-11-27T14:31:45.724Z,7.79
2022-11-27T14:36:52.040Z,7.74
2022-11-27T14:42:01.556Z,7.68
2022-11-27T14:47:06.568Z,7.58
2022-11-27T14:52:14.726Z,7.46
2022-11-27T14:57:35.153Z,7.35
2022-11-27T15:02:36.812Z,7.27
2022-11-27T15:07:45.400Z,7.15
2022-11-27T15:12:49.721Z,7.03
2022-11-27T15:18:17.923Z,6.90
2022-11-27T15:23:27.751Z,6.80
2022-11-27T15:28:32.633Z,6.68
2022-11-27T15:33:34.233Z,6.58
2022-11-27T15:38:35.624Z,6.51
2022-11-27T15:43:37.014Z,6.44
2022-11-27T15:48:39.314Z,6.40
2022-11-27T15:53:40.876Z,6.32
2022-11-27T15:58:43.292Z,6.26
2022-11-27T16:03:44.770Z,6.22
2022-11-27T16:08:46.142Z,6.19
2022-11-27T16:13:47.649Z,6.15
2022-11-27T16:18:49.083Z,6.10
2022-11-27T16:23:50.503Z,6.03
2022-11-27T16:28:52.047Z,5.94
2022-11-27T16:33:54.009Z,5.78
2022-11-27T16:38:58.356Z,5.62
2022-11-27T16:43:59.765Z,5.46
2022-11-27T16:49:01.344Z,5.32
2022-11-27T16:54:06.224Z,5.28
2022-11-27T16:59:10.571Z,5.26
2022-11-27T17:04:18.648Z,5.23
2022-11-27T17:09:22.424Z,5.21
2022-11-27T17:14:26.684Z,5.16
2022-11-27T17:19:29.942Z,5.13
2022-11-27T17:24:31.709Z,5.15
2022-11-27T17:29:37.642Z,5.17
2022-11-27T17:34:39.942Z,5.19
2022-11-27T17:39:43.461Z,5.25
2022-11-27T17:44:45.695Z,5.34
2022-11-27T17:49:47.082Z,5.40
2022-11-27T17:54:48.562Z,5.46
2022-11-27T17:59:50.258Z,5.52
2022-11-27T18:04:52.488Z,5.60
2022-11-27T18:10:00.627Z,5.64
2022-11-27T18:27:35.914Z,5.48
2022-11-27T18:32:38.181Z,5.38
2022-11-27T18:37:39.598Z,5.32
2022-11-27T18:42:40.963Z,5.27
2022-11-27T18:47:42.339Z,5.23
2022-11-27T18:52:43.730Z,5.17
2022-11-27T18:57:46.235Z,5.11
2022-11-27T19:02:49.977Z,5.04
2022-11-27T19:07:53.488Z,4.96
2022-11-27T19:12:59.080Z,4.89
2022-11-27T19:18:01.160Z,4.81
2022-11-27T19:28:45.574Z,4.77
2022-11-27T19:34:15.992Z,4.77
2022-11-27T19:39:24.151Z,4.70
2022-11-27T19:44:27.861Z,4.71
2022-11-27T19:49:35.611Z,4.74
2022-11-27T19:54:37.349Z,4.71
2022-11-27T19:59:40.111Z,4.71
2022-11-27T20:04:43.850Z,4.66
2022-11-27T20:09:45.585Z,4.61
2022-11-27T20:14:47.031Z,4.59
2022-11-27T20:19:48.742Z,4.58
2022-11-27T20:25:11.640Z,4.58
2022-11-27T20:30:12.747Z,4.54
2022-11-27T20:35:15.128Z,4.52
2022-11-27T20:40:16.927Z,4.51
2022-11-27T20:45:20.521Z,4.49
2022-11-27T20:50:23.463Z,4.53
2022-11-27T20:55:25.028Z,4.54
2022-11-27T21:00:26.914Z,4.55
2022-11-27T21:05:28.331Z,4.54
2022-11-27T21:10:29.873Z,4.55
2022-11-27T21:15:31.307Z,4.48
2022-11-27T21:20:32.847Z,4.39
2022-11-27T21:25:34.336Z,4.31
2022-11-27T21:30:35.843Z,4.24
2022-11-27T21:35:40.308Z,4.22
2022-11-27T21:40:42.300Z,4.18
2022-11-27T21:45:43.733Z,4.18
2022-11-27T21:50:45.252Z,4.23
2022-11-27T21:55:46.691Z,4.24
2022-11-27T22:00:51.560Z,4.27
2022-11-27T22:06:01.483Z,4.29
2022-11-27T22:11:07.489Z,4.30
2022-11-27T22:16:15.427Z,4.31
2022-11-27T22:21:17.558Z,4.31
2022-11-27T22:26:21.039Z,4.28
2022-11-27T22:31:30.165Z,4.31
2022-11-27T22:36:35.478Z,4.31
2022-11-27T22:41:40.417Z,4.28
2022-11-27T22:46:43.401Z,4.26
2022-11-27T22:51:46.114Z,4.26
2022-11-27T22:56:48.912Z,4.26
2022-11-27T23:01:50.284Z,4.25
2022-11-27T23:06:51.853Z,4.25
2022-11-27T23:11:53.407Z,4.20
2022-11-27T23:16:55.968Z,4.23
2022-11-27T23:21:57.517Z,4.26
2022-11-27T23:26:58.891Z,4.29
2022-11-27T23:32:00.997Z,4.35
2022-11-27T23:37:02.620Z,4.37
2022-11-27T23:42:04.437Z,4.35
2022-11-27T23:47:06.271Z,4.33
2022-11-27T23:52:09.344Z,4.37
2022-11-27T23:57:13.316Z,4.40
